createdAt,value
2022-11-22T00:02:10.694Z,99367.00
2022-11-22T00:16:25.762Z,99370.20
2022-11-22T00:21:55.340Z,99367.00
2022-11-22T00:26:58.943Z,99369.40
2022-11-22T00:32:38.322Z,99367.00
2022-11-22T00:46:17.682Z,99388.20
2022-11-22T00:51:21.458Z,99393.20
2022-11-22T00:57:46.360Z,99391.80
2022-11-22T01:09:38.659Z,99388.20
2022-11-22T01:14:42.517Z,99384.60
2022-11-22T01:19:46.691Z,99382.80
2022-11-22T01:24:50.846Z,99373.00
2022-11-22T01:37:03.132Z,99383.20
2022-11-22T01:42:06.929Z,99388.80
2022-11-22T01:56:00.257Z,99393.00
2022-11-22T02:01:03.189Z,99394.00
2022-11-22T02:06:42.196Z,99404.00
2022-11-22T02:12:38.981Z,99402.60
2022-11-22T02:18:57.810Z,99401.40
2022-11-22T02:24:17.477Z,99403.00
2022-11-22T02:29:21.080Z,99407.40
2022-11-22T02:57:03.909Z,99413.00
2022-11-22T03:02:06.346Z,99405.00
2022-11-22T03:15:35.030Z,99413.80
2022-11-22T03:21:53.876Z,99406.20
2022-11-22T03:27:50.041Z,99401.00
2022-11-22T03:34:08.966Z,99398.40
2022-11-22T03:39:11.365Z,99397.20
2022-11-22T03:44:39.251Z,99397.60
2022-11-22T03:49:41.945Z,99395.00
2022-11-22T03:55:09.587Z,99392.60
2022-11-22T04:00:12.770Z,99388.20
2022-11-22T04:06:06.154Z,99394.80
2022-11-22T04:12:00.019Z,99392.20
2022-11-22T04:17:54.945Z,99389.20
2022-11-22T04:24:33.160Z,99396.60
2022-11-22T04:31:17.586Z,99389.00
2022-11-22T04:36:49.120Z,99383.80
2022-11-22T04:43:27.889Z,99401.80
2022-11-22T04:49:21.159Z,99396.60
2022-11-22T04:54:23.674Z,99408.60
2022-11-22T04:59:51.491Z,99412.20
2022-11-22T05:06:10.048Z,99416.40
2022-11-22T05:12:04.239Z,99418.20
2022-11-22T05:17:09.339Z,99421.40
2022-11-22T05:22:56.984Z,99427.20
2022-11-22T05:28:50.699Z,99427.60
2022-11-22T05:33:55.946Z,99433.20
2022-11-22T05:38:58.832Z,99438.40
2022-11-22T05:44:01.418Z,99448.00
2022-11-22T05:49:54.364Z,99444.40
2022-11-22T05:54:57.001Z,99451.60
2022-11-22T06:00:25.167Z,99456.80
2022-11-22T06:06:22.160Z,99454.60
2022-11-22T06:12:41.007Z,99462.00
2022-11-22T06:17:43.436Z,99466.60
2022-11-22T06:23:11.069Z,99472.60
2022-11-22T06:28:13.474Z,99476.20
2022-11-22T06:33:43.203Z,99481.20
2022-11-22T06:38:46.011Z,99459.60
2022-11-22T06:44:13.393Z,99476.20
2022-11-22T06:49:15.781Z,99483.60
2022-11-22T06:54:18.174Z,99493.40
2022-11-22T07:06:39.795Z,99509.40
2022-11-22T07:11:42.504Z,99505.40
2022-11-22T07:16:44.855Z,99504.20
2022-11-22T07:21:49.313Z,99508.20
2022-11-22T07:26:52.332Z,99522.00
2022-11-22T07:31:55.104Z,99523.80
2022-11-22T07:37:00.527Z,99525.80
2022-11-22T07:42:07.155Z,99520.00
2022-11-22T07:47:09.571Z,99514.80
2022-11-22T07:52:11.925Z,99522.80
2022-11-22T07:57:15.142Z,99527.00
2022-11-22T08:02:17.797Z,99530.40
2022-11-22T08:07:20.130Z,99530.20
2022-11-22T08:12:22.627Z,99534.00
2022-11-22T08:17:24.934Z,99546.00
2022-11-22T08:22:28.124Z,99545.40
2022-11-22T08:27:30.410Z,99550.20
2022-11-22T08:32:33.473Z,99549.40
2022-11-22T08:37:35.800Z,99544.00
2022-11-22T08:42:38.324Z,99550.40
2022-11-22T08:47:40.899Z,99542.80
2022-11-22T08:52:44.641Z,99536.40
2022-11-22T09:05:16.137Z,99556.00
2022-11-22T09:10:18.735Z,99554.40
2022-11-22T09:15:21.264Z,99569.60
2022-11-22T09:21:20.364Z,99579.60
2022-11-22T09:26:48.248Z,99569.20
2022-11-22T09:31:50.933Z,99588.80
2022-11-22T09:38:35.120Z,99583.40
2022-11-22T09:44:39.835Z,99575.20
2022-11-22T09:50:14.988Z,99567.40
2022-11-22T09:55:57.032Z,99553.40
2022-11-22T10:01:27.339Z,99566.40
2022-11-22T10:06:37.224Z,99559.20
2022-11-22T10:11:54.240Z,99551.60
2022-11-22T10:17:16.877Z,99544.20
2022-11-22T10:22:19.704Z,99578.80
2022-11-22T10:27:22.061Z,99577.40
2022-11-22T10:33:05.095Z,99575.20
2022-11-22T10:38:41.913Z,99576.00
2022-11-22T10:44:05.720Z,99577.00
2022-11-22T10:49:55.010Z,99570.20
2022-11-22T11:02:58.656Z,99578.80
2022-11-22T11:08:36.723Z,99586.20
2022-11-22T11:13:38.561Z,99590.00
2022-11-22T11:19:02.695Z,99590.60
2022-11-22T11:24:15.290Z,99585.80
2022-11-22T11:29:17.604Z,99582.60
2022-11-22T11:34:27.531Z,99581.00
2022-11-22T11:39:35.268Z,99571.00
2022-11-22T11:44:41.702Z,99561.20
2022-11-22T11:49:51.639Z,99566.60
2022-11-22T11:55:44.503Z,99548.40
2022-11-22T12:00:47.131Z,99551.80
2022-11-22T12:06:14.692Z,99551.60
2022-11-22T12:12:17.589Z,99551.20
2022-11-22T12:18:37.309Z,99542.20
2022-11-22T12:25:16.954Z,99537.40
2022-11-22T12:38:41.770Z,99523.20
2022-11-22T12:44:16.797Z,99509.40
2022-11-22T12:56:53.322Z,99518.40
2022-11-22T13:02:26.954Z,99522.00
2022-11-22T13:14:59.302Z,99530.40
2022-11-22T13:21:43.314Z,99533.40
2022-11-22T13:35:00.995Z,99554.40
2022-11-22T13:48:43.556Z,99564.20
2022-11-22T14:02:21.858Z,99572.80
2022-11-22T14:08:44.400Z,99567.80
2022-11-22T14:14:32.044Z,99575.00
2022-11-22T14:19:57.306Z,99577.40
2022-11-22T14:26:12.219Z,99567.60
2022-11-22T14:31:35.017Z,99559.00
2022-11-22T14:36:40.473Z,99562.60
2022-11-22T14:41:47.023Z,99568.60
2022-11-22T14:47:15.739Z,99574.20
2022-11-22T14:52:28.295Z,99582.00
2022-11-22T15:13:38.784Z,99585.80
2022-11-22T15:57:14.067Z,99575.60
2022-11-22T16:17:37.775Z,99586.00
2022-11-22T16:23:09.935Z,99594.00
2022-11-22T16:29:23.114Z,99600.40
2022-11-22T16:34:26.843Z,99606.20
2022-11-22T16:39:31.775Z,99617.00
2022-11-22T16:44:36.273Z,99617.40
2022-11-22T16:49:39.945Z,99615.80
2022-11-22T16:54:44.082Z,99611.00
2022-11-22T16:59:47.842Z,99608.20
2022-11-22T17:04:51.524Z,99606.20
2022-11-22T17:09:56.683Z,99603.20
2022-11-22T17:16:22.935Z,99597.80
2022-11-22T17:30:21.930Z,99592.20
2022-11-22T17:35:26.258Z,99589.20
2022-11-22T17:40:29.881Z,99596.80
2022-11-22T17:45:34.513Z,99602.40
2022-11-22T17:50:47.256Z,99601.80
2022-11-22T18:01:20.425Z,99599.80
2022-11-22T18:07:42.087Z,99596.20
2022-11-22T18:19:52.020Z,99619.80
2022-11-22T18:24:56.401Z,99618.20
2022-11-22T18:30:01.528Z,99627.00
2022-11-22T18:42:12.549Z,99625.60
2022-11-22T18:47:17.400Z,99616.60
2022-11-22T18:52:23.586Z,99613.20
2022-11-22T18:57:29.338Z,99613.80
2022-11-22T19:02:42.234Z,99613.40
2022-11-22T19:08:15.163Z,99622.00
2022-11-22T19:13:19.871Z,99617.40
2022-11-22T19:25:44.568Z,99624.60
2022-11-22T19:30:49.196Z,99638.80
2022-11-22T19:36:14.866Z,99643.20
2022-11-22T19:41:22.677Z,99647.40
2022-11-22T19:47:17.274Z,99654.40
2022-11-22T19:52:22.025Z,99650.20
2022-11-22T19:57:26.236Z,99651.80
2022-11-22T20:03:55.962Z,99658.40
2022-11-22T20:09:13.757Z,99660.20
2022-11-22T20:21:39.836Z,99669.80
2022-11-22T20:42:43.336Z,99686.60
2022-11-22T20:47:50.176Z,99686.00
2022-11-22T20:52:54.611Z,99682.60
2022-11-22T20:57:58.322Z,99683.60
2022-11-22T21:03:02.123Z,99687.80
2022-11-22T21:31:26.118Z,99698.40
2022-11-22T21:43:57.836Z,99682.60
2022-11-22T21:57:03.904Z,99678.60
2022-11-22T22:02:59.138Z,99686.40
2022-11-22T22:08:21.503Z,99682.20
2022-11-22T22:22:10.398Z,99689.20
2022-11-22T22:34:50.548Z,99688.20
2022-11-22T22:39:54.346Z,99693.40
2022-11-22T22:45:20.031Z,99692.40
2022-11-22T22:50:24.982Z,99686.80
2022-11-22T22:55:34.799Z,99692.60
2022-11-22T23:01:34.431Z,99682.40
2022-11-22T23:06:40.211Z,99678.80
2022-11-22T23:20:28.944Z,99679.00
2022-11-22T23:25:33.865Z,99683.20
2022-11-22T23:30:37.980Z,99680.20
2022-11-22T23:43:35.195Z,99672.20
2022-11-22T23:48:38.941Z,99674.80
2022-11-22T23:53:42.826Z,99665.00
2022-11-22T23:58:47.051Z,99651.60
